Terminal Aerodrome Forecast
Issued by NWS

Home | Current Version | Previous Version | Text Only | Print | Product List | Glossary On
Versions: 1 2 3 4 5 6 7 8 9 10 11 12 13 14 15 16 17 18 19 20 21 22 23 24 25 26 27 28 29 30 31 32 33 34 35 36 37 38 39 40 41 42 43 44 45 46 47 48 49 50
000
FTUS45 KSLC 011133
TAF36U
TAF
K36U 011133Z 0112/0212 VRB03KT P6SM SKC
     FM011300 00000KT 4SM BR BCFG SCT001
      TEMPO 0114/0116 1/2SM FZFG OVC001
     FM011700 VRB05KT P6SM BKN100 OVC150
     FM020200 VRB03KT P6SM SCT050 BKN080=

USA.gov is the U.S. government's official web portal to all federal, state and local government web resources and services.